createdAt,value
2018-07-01T00:00:33.781Z,16.88
2018-07-01T00:03:06.575Z,16.85
2018-07-01T00:05:35.953Z,16.81
2018-07-01T00:08:06.508Z,16.77
2018-07-01T00:10:37.299Z,16.76
2018-07-01T00:13:07.854Z,16.75
2018-07-01T00:15:37.591Z,16.73
2018-07-01T00:18:07.056Z,16.66
2018-07-01T00:20:36.426Z,16.69
2018-07-01T00:23:06.480Z,16.65
2018-07-01T00:25:35.814Z,16.57
2018-07-01T00:28:05.142Z,16.55
2018-07-01T00:30:34.437Z,16.55
2018-07-01T00:33:03.817Z,16.54
2018-07-01T00:35:33.158Z,16.55
2018-07-01T00:38:02.530Z,16.49
2018-07-01T00:40:31.884Z,16.51
2018-07-01T00:43:01.286Z,16.47
2018-07-01T00:45:30.893Z,16.42
2018-07-01T00:48:00.230Z,16.37
2018-07-01T00:50:29.580Z,16.37
2018-07-01T00:52:58.948Z,16.27
2018-07-01T00:55:28.077Z,16.26
2018-07-01T00:57:57.541Z,16.18
2018-07-01T01:00:31.884Z,16.20
2018-07-01T01:03:02.042Z,16.19
2018-07-01T01:05:31.869Z,16.13
2018-07-01T01:08:01.249Z,16.09
2018-07-01T01:10:30.635Z,16.13
2018-07-01T01:13:00.015Z,16.12
2018-07-01T01:15:29.726Z,16.03
2018-07-01T01:17:59.117Z,16.04
2018-07-01T01:20:28.462Z,15.99
2018-07-01T01:22:58.863Z,16.03
2018-07-01T01:25:28.630Z,15.96
2018-07-01T01:27:58.002Z,15.88
2018-07-01T01:30:27.424Z,15.90
2018-07-01T01:32:56.973Z,15.87
2018-07-01T01:35:26.404Z,15.85
2018-07-01T01:37:55.793Z,15.79
2018-07-01T01:40:28.498Z,15.81
2018-07-01T01:43:02.104Z,15.76
2018-07-01T01:46:11.264Z,15.79
2018-07-01T01:48:45.929Z,15.78
2018-07-01T01:51:25.833Z,15.67
2018-07-01T01:54:02.289Z,15.66
2018-07-01T01:56:36.457Z,15.57
2018-07-01T01:59:11.066Z,15.59
2018-07-01T02:01:43.450Z,15.59
2018-07-01T02:04:21.731Z,15.58
2018-07-01T02:06:56.213Z,15.45
2018-07-01T02:09:29.445Z,15.46
2018-07-01T02:12:00.304Z,15.43
2018-07-01T02:14:33.593Z,15.42
2018-07-01T02:17:05.201Z,15.41
2018-07-01T02:19:34.629Z,15.40
2018-07-01T02:22:07.111Z,15.38
2018-07-01T02:24:39.880Z,15.34
2018-07-01T02:27:09.266Z,15.29
2018-07-01T02:29:38.297Z,15.31
2018-07-01T02:32:07.794Z,15.20
2018-07-01T02:34:37.110Z,15.14
2018-07-01T02:37:06.553Z,15.07
2018-07-01T02:39:35.949Z,15.11
2018-07-01T02:42:05.716Z,15.08
2018-07-01T02:44:35.145Z,15.08
2018-07-01T02:47:04.518Z,15.05
2018-07-01T02:49:33.864Z,15.02
2018-07-01T02:52:03.245Z,14.92
2018-07-01T02:54:32.602Z,14.92
2018-07-01T02:57:01.970Z,14.94
2018-07-01T02:59:31.360Z,14.85
2018-07-01T03:02:00.757Z,14.85
2018-07-01T03:04:30.141Z,14.76
2018-07-01T03:06:59.541Z,14.76
2018-07-01T03:09:28.923Z,14.75
2018-07-01T03:11:58.370Z,14.76
2018-07-01T03:14:28.020Z,14.75
2018-07-01T03:16:57.426Z,14.73
2018-07-01T03:19:26.895Z,14.82
2018-07-01T03:21:56.332Z,14.73
2018-07-01T03:24:25.742Z,14.72
2018-07-01T03:26:55.119Z,14.74
2018-07-01T03:29:24.514Z,14.63
2018-07-01T03:31:53.866Z,14.66
2018-07-01T03:34:23.260Z,14.63
2018-07-01T03:36:52.576Z,14.60
2018-07-01T03:39:21.911Z,14.59
2018-07-01T03:41:51.248Z,14.62
2018-07-01T03:44:20.574Z,14.60
2018-07-01T03:46:49.903Z,14.54
2018-07-01T03:49:19.234Z,14.56
2018-07-01T03:51:48.634Z,14.56
2018-07-01T03:54:18.040Z,14.57
2018-07-01T03:56:47.385Z,14.54
2018-07-01T03:59:16.751Z,14.56
2018-07-01T04:01:46.164Z,14.62
2018-07-01T04:04:15.550Z,14.62
2018-07-01T04:06:44.924Z,14.65
2018-07-01T04:09:14.385Z,14.65
2018-07-01T04:11:43.735Z,14.61
2018-07-01T04:14:13.117Z,14.62
2018-07-01T04:16:42.442Z,14.61
2018-07-01T04:19:11.839Z,14.57
2018-07-01T04:21:41.192Z,14.61
2018-07-01T04:24:10.529Z,14.64
2018-07-01T04:26:39.845Z,14.65
2018-07-01T04:29:09.176Z,14.66
2018-07-01T04:31:38.493Z,14.61
2018-07-01T04:34:07.805Z,14.67
2018-07-01T04:36:37.174Z,14.70
2018-07-01T04:39:08.726Z,14.66
2018-07-01T04:41:38.089Z,14.64
2018-07-01T04:44:07.594Z,14.74
2018-07-01T04:46:37.099Z,14.71
2018-07-01T04:49:06.500Z,14.66
2018-07-01T04:51:35.827Z,14.80
2018-07-01T04:54:05.183Z,14.82
2018-07-01T04:56:34.743Z,14.80
2018-07-01T04:59:04.133Z,14.90
2018-07-01T05:01:33.533Z,14.93
2018-07-01T05:04:02.951Z,15.01
2018-07-01T05:06:32.277Z,14.99
2018-07-01T05:09:02.717Z,15.14
2018-07-01T05:11:32.082Z,15.04
2018-07-01T05:14:01.543Z,14.99
2018-07-01T05:16:30.925Z,15.07
2018-07-01T05:19:00.286Z,15.13
2018-07-01T05:21:29.889Z,15.16
2018-07-01T05:23:59.278Z,15.13
2018-07-01T05:26:28.745Z,15.13
2018-07-01T05:28:58.462Z,15.14
2018-07-01T05:31:27.971Z,15.32
2018-07-01T05:33:57.925Z,15.21
2018-07-01T05:36:27.384Z,15.23
2018-07-01T05:38:56.775Z,15.34
2018-07-01T05:41:26.113Z,15.34
2018-07-01T05:43:55.632Z,15.35
2018-07-01T05:46:24.999Z,15.47
2018-07-01T05:48:54.337Z,15.63
2018-07-01T05:51:23.705Z,15.63
2018-07-01T05:53:53.030Z,15.68
2018-07-01T05:56:22.439Z,15.72
2018-07-01T05:58:51.792Z,15.82
2018-07-01T06:01:21.145Z,15.78
2018-07-01T06:03:50.519Z,15.91
2018-07-01T06:06:19.882Z,15.97
2018-07-01T06:08:49.285Z,16.03
2018-07-01T06:11:18.865Z,16.05
2018-07-01T06:13:48.198Z,16.05
2018-07-01T06:16:18.083Z,16.04
2018-07-01T06:18:47.449Z,16.03
2018-07-01T06:21:16.918Z,16.04
2018-07-01T06:23:46.305Z,16.21
2018-07-01T06:26:15.610Z,16.30
2018-07-01T06:28:44.920Z,16.36
2018-07-01T06:31:14.279Z,16.44
2018-07-01T06:33:43.626Z,16.50
2018-07-01T06:36:12.983Z,16.50
2018-07-01T06:38:42.436Z,16.47
2018-07-01T06:41:11.812Z,16.53
2018-07-01T06:43:41.135Z,16.54
2018-07-01T06:46:10.702Z,16.73
2018-07-01T06:48:40.065Z,16.70
2018-07-01T06:51:09.445Z,16.80
2018-07-01T06:53:38.969Z,16.81
2018-07-01T06:56:08.297Z,16.97
2018-07-01T06:58:37.625Z,16.94
2018-07-01T07:01:07.116Z,17.02
2018-07-01T07:03:36.521Z,17.16
2018-07-01T07:06:05.914Z,17.27
2018-07-01T07:08:35.465Z,17.22
2018-07-01T07:11:04.813Z,17.36
2018-07-01T07:13:35.046Z,17.37
2018-07-01T07:16:04.473Z,17.43
2018-07-01T07:18:33.847Z,17.51
2018-07-01T07:21:03.329Z,17.44
2018-07-01T07:23:32.776Z,17.45
2018-07-01T07:26:02.750Z,17.55
2018-07-01T07:28:32.212Z,17.75
2018-07-01T07:31:01.559Z,17.81
2018-07-01T07:33:30.954Z,17.71
2018-07-01T07:36:02.714Z,17.84
2018-07-01T07:38:33.968Z,17.89
2018-07-01T07:41:04.724Z,17.93
2018-07-01T07:43:38.373Z,18.04
2018-07-01T07:46:07.741Z,18.08
2018-07-01T07:48:37.393Z,18.31
2018-07-01T07:51:06.726Z,18.40
2018-07-01T07:53:36.095Z,18.54
2018-07-01T07:56:05.484Z,18.63
2018-07-01T07:58:34.845Z,18.52
2018-07-01T08:01:04.226Z,18.50
2018-07-01T08:03:33.598Z,18.51
2018-07-01T08:06:02.937Z,18.59
2018-07-01T08:08:32.342Z,18.77
2018-07-01T08:11:01.788Z,18.80
2018-07-01T08:13:31.201Z,18.74
2018-07-01T08:16:01.589Z,18.95
2018-07-01T08:18:30.995Z,18.78
2018-07-01T08:21:00.422Z,18.80
2018-07-01T08:23:29.964Z,18.97
2018-07-01T08:25:59.603Z,19.29
2018-07-01T08:28:29.062Z,19.53
2018-07-01T08:30:58.471Z,19.59
2018-07-01T08:33:27.876Z,19.89
2018-07-01T08:35:57.364Z,20.00
2018-07-01T08:38:26.885Z,20.13
2018-07-01T08:41:03.380Z,20.18
2018-07-01T08:43:33.634Z,20.25
2018-07-01T08:46:03.061Z,20.34
2018-07-01T08:48:32.430Z,20.32
2018-07-01T08:51:01.830Z,20.48
2018-07-01T08:53:31.199Z,20.54
2018-07-01T08:56:00.688Z,20.63
2018-07-01T08:58:30.145Z,20.68
2018-07-01T09:00:59.644Z,20.77
2018-07-01T09:03:29.181Z,20.70
2018-07-01T09:05:58.579Z,20.71
2018-07-01T09:08:28.687Z,20.92
2018-07-01T09:10:58.096Z,20.97
2018-07-01T09:13:27.496Z,21.03
2018-07-01T09:15:57.059Z,21.19
2018-07-01T09:18:26.429Z,21.21
2018-07-01T09:20:55.888Z,21.31
2018-07-01T09:23:25.634Z,21.36
2018-07-01T09:25:55.223Z,21.40
2018-07-01T09:28:24.791Z,21.43
2018-07-01T09:30:54.180Z,21.39
2018-07-01T09:33:23.518Z,21.34
2018-07-01T09:35:52.897Z,21.08
2018-07-01T09:38:22.371Z,21.25
2018-07-01T09:40:51.695Z,21.54
2018-07-01T09:43:21.115Z,21.75
2018-07-01T09:45:50.390Z,21.84
2018-07-01T09:48:19.787Z,21.84
2018-07-01T09:50:49.114Z,21.86
2018-07-01T09:53:18.502Z,22.00
2018-07-01T09:55:47.861Z,21.93
2018-07-01T09:58:17.217Z,21.90
2018-07-01T10:00:46.583Z,22.00
2018-07-01T10:03:15.976Z,22.09
2018-07-01T10:05:45.385Z,22.21
2018-07-01T10:08:14.804Z,22.32
2018-07-01T10:10:44.124Z,22.34
2018-07-01T10:13:13.541Z,22.53
2018-07-01T10:15:43.030Z,22.71
2018-07-01T10:18:12.541Z,22.73
2018-07-01T10:20:41.924Z,22.64
2018-07-01T10:23:11.301Z,22.63
2018-07-01T10:25:40.690Z,22.63
2018-07-01T10:28:10.105Z,22.69
2018-07-01T10:30:39.511Z,22.55
2018-07-01T10:33:08.899Z,22.62
2018-07-01T10:35:38.242Z,22.60
2018-07-01T10:38:07.675Z,22.53
2018-07-01T10:40:37.047Z,22.69
2018-07-01T10:43:07.528Z,22.81
2018-07-01T10:45:36.903Z,22.92
2018-07-01T10:48:06.332Z,22.96
2018-07-01T10:50:35.743Z,22.76
2018-07-01T10:53:05.318Z,22.92
2018-07-01T10:55:34.664Z,22.94
2018-07-01T10:58:04.049Z,23.01
2018-07-01T11:00:33.708Z,23.01
2018-07-01T11:03:03.042Z,23.02
2018-07-01T11:05:32.727Z,23.23
2018-07-01T11:08:02.092Z,23.32
2018-07-01T11:10:31.537Z,23.45
2018-07-01T11:13:00.997Z,23.42
2018-07-01T11:15:30.382Z,23.40
2018-07-01T11:17:59.826Z,23.35
2018-07-01T11:20:29.409Z,23.21
2018-07-01T11:22:58.959Z,23.31
2018-07-01T11:25:28.393Z,23.17
2018-07-01T11:27:57.882Z,23.23
2018-07-01T11:30:27.319Z,23.26
2018-07-01T11:32:56.793Z,23.29
2018-07-01T11:35:26.228Z,23.11
2018-07-01T11:37:55.698Z,23.19
2018-07-01T11:40:25.068Z,23.40
2018-07-01T11:42:54.424Z,23.44
2018-07-01T11:45:23.773Z,23.53
2018-07-01T11:47:53.137Z,23.68
2018-07-01T11:50:22.512Z,23.75
2018-07-01T11:52:52.596Z,23.80
2018-07-01T11:55:21.951Z,23.81
2018-07-01T11:57:51.281Z,23.78
2018-07-01T12:00:20.710Z,23.64
2018-07-01T12:02:50.321Z,23.71
2018-07-01T12:05:19.848Z,23.83
2018-07-01T12:07:49.195Z,23.90
2018-07-01T12:10:18.597Z,23.93
2018-07-01T12:12:47.932Z,24.07
2018-07-01T12:15:17.663Z,24.09
2018-07-01T12:17:48.081Z,24.11
2018-07-01T12:20:17.819Z,24.15
2018-07-01T12:22:48.540Z,24.14
2018-07-01T12:25:18.492Z,24.22
2018-07-01T12:27:47.975Z,24.20
2018-07-01T12:30:17.469Z,24.17
2018-07-01T12:32:46.930Z,24.19
2018-07-01T12:35:16.312Z,24.14
2018-07-01T12:37:45.733Z,24.15
2018-07-01T12:40:15.205Z,24.14
2018-07-01T12:42:44.753Z,24.15
2018-07-01T12:45:14.147Z,24.02
2018-07-01T12:47:43.664Z,24.19
2018-07-01T12:50:13.053Z,24.21
2018-07-01T12:52:42.530Z,24.23
2018-07-01T12:55:12.115Z,24.25
2018-07-01T12:57:41.496Z,24.30
2018-07-01T13:00:10.971Z,24.34
2018-07-01T13:02:40.341Z,24.51
2018-07-01T13:05:09.821Z,24.35
2018-07-01T13:07:39.200Z,24.45
2018-07-01T13:10:08.922Z,24.39
2018-07-01T13:12:38.875Z,24.26
2018-07-01T13:15:08.310Z,24.39
2018-07-01T13:17:37.672Z,24.32
2018-07-01T13:20:07.402Z,24.29
2018-07-01T13:22:36.799Z,24.39
2018-07-01T13:25:06.337Z,24.39
2018-07-01T13:27:35.721Z,24.43
2018-07-01T13:30:05.610Z,24.38
2018-07-01T13:32:35.152Z,24.42
2018-07-01T13:35:04.598Z,24.53
2018-07-01T13:37:34.089Z,24.44
2018-07-01T13:40:03.449Z,24.42
2018-07-01T13:42:32.827Z,24.48
2018-07-01T13:45:02.189Z,24.50
2018-07-01T13:47:31.533Z,24.53
2018-07-01T13:50:00.885Z,24.57
2018-07-01T13:52:30.275Z,24.52
2018-07-01T13:55:00.002Z,24.61
2018-07-01T13:57:29.399Z,24.61
2018-07-01T13:59:59.426Z,24.53
2018-07-01T14:02:28.842Z,24.61
2018-07-01T14:04:58.229Z,24.56
2018-07-01T14:07:27.738Z,24.50
2018-07-01T14:09:57.159Z,24.35
2018-07-01T14:12:26.584Z,24.34
2018-07-01T14:14:55.949Z,24.27
2018-07-01T14:17:25.431Z,24.32
2018-07-01T14:19:54.890Z,24.27
2018-07-01T14:22:24.225Z,24.24
2018-07-01T14:24:53.827Z,24.36
2018-07-01T14:27:23.226Z,24.21
2018-07-01T14:29:52.580Z,24.19
2018-07-01T14:32:21.930Z,24.17
2018-07-01T14:34:51.317Z,24.21
2018-07-01T14:37:20.732Z,24.19
2018-07-01T14:39:50.172Z,24.13
2018-07-01T14:42:19.574Z,24.14
2018-07-01T14:44:49.206Z,24.07
2018-07-01T14:47:18.609Z,24.04
2018-07-01T14:49:47.961Z,23.83
2018-07-01T14:52:17.316Z,23.75
2018-07-01T14:54:46.715Z,23.74
2018-07-01T14:57:16.132Z,23.80
2018-07-01T14:59:45.523Z,23.84
2018-07-01T15:02:14.939Z,23.89
2018-07-01T15:04:44.370Z,23.63
2018-07-01T15:07:14.024Z,23.53
2018-07-01T15:09:43.432Z,23.54
2018-07-01T15:12:12.869Z,23.53
2018-07-01T15:14:42.293Z,23.57
2018-07-01T15:17:11.683Z,23.56
2018-07-01T15:19:41.029Z,23.38
2018-07-01T15:22:10.500Z,23.29
2018-07-01T15:24:39.805Z,23.15
2018-07-01T15:27:09.311Z,23.09
2018-07-01T15:29:38.887Z,22.98
2018-07-01T15:32:08.535Z,22.95
2018-07-01T15:34:39.025Z,23.07
2018-07-01T15:37:09.034Z,22.81
2018-07-01T15:39:38.602Z,22.68
2018-07-01T15:42:08.050Z,22.53
2018-07-01T15:44:37.515Z,22.57
2018-07-01T15:47:07.158Z,22.51
2018-07-01T15:49:36.533Z,22.48
2018-07-01T15:52:06.057Z,22.38
2018-07-01T15:54:35.988Z,22.41
2018-07-01T15:57:05.641Z,22.40
2018-07-01T15:59:35.047Z,22.27
2018-07-01T16:02:04.428Z,22.33
2018-07-01T16:04:33.828Z,22.28
2018-07-01T16:07:03.198Z,22.32
2018-07-01T16:09:32.567Z,22.11
2018-07-01T16:12:01.929Z,22.06
2018-07-01T16:14:31.277Z,22.00
2018-07-01T16:17:00.734Z,21.91
2018-07-01T16:19:30.113Z,21.88
2018-07-01T16:21:59.615Z,21.74
2018-07-01T16:24:29.118Z,21.78
2018-07-01T16:27:03.695Z,21.71
2018-07-01T16:29:33.076Z,21.86
2018-07-01T16:32:02.391Z,21.80
2018-07-01T16:34:31.761Z,21.70
2018-07-01T16:37:01.194Z,21.65
2018-07-01T16:39:30.571Z,21.66
2018-07-01T16:42:00.000Z,21.76
2018-07-01T16:44:29.363Z,21.61
2018-07-01T16:46:59.190Z,21.58
2018-07-01T16:49:28.639Z,21.58
2018-07-01T16:51:58.021Z,21.60
2018-07-01T16:54:27.396Z,21.55
2018-07-01T16:56:56.801Z,21.50
2018-07-01T16:59:27.126Z,21.63
2018-07-01T17:01:56.658Z,21.57
2018-07-01T17:04:26.061Z,21.49
2018-07-01T17:06:55.526Z,21.47
2018-07-01T17:09:25.025Z,21.40
2018-07-01T17:11:54.541Z,21.39
2018-07-01T17:14:23.991Z,21.42
2018-07-01T17:16:53.496Z,21.39
2018-07-01T17:19:23.500Z,21.31
2018-07-01T17:21:52.936Z,21.26
2018-07-01T17:24:22.439Z,21.23
2018-07-01T17:26:53.272Z,21.25
2018-07-01T17:29:22.702Z,21.31
2018-07-01T17:31:57.437Z,21.26
2018-07-01T17:34:27.010Z,21.27
2018-07-01T17:36:56.437Z,21.23
2018-07-01T17:39:25.862Z,21.26
2018-07-01T17:41:58.740Z,21.19
2018-07-01T17:44:28.312Z,21.16
2018-07-01T17:46:57.898Z,21.08
2018-07-01T17:49:27.569Z,20.98
2018-07-01T17:51:57.028Z,20.99
2018-07-01T17:54:26.435Z,20.97
2018-07-01T17:56:55.897Z,20.97
2018-07-01T17:59:25.306Z,20.93
2018-07-01T18:01:54.778Z,20.92
2018-07-01T18:04:24.149Z,20.88
2018-07-01T18:06:53.531Z,20.83
2018-07-01T18:09:23.012Z,20.76
2018-07-01T18:11:52.486Z,20.82
2018-07-01T18:14:21.852Z,20.71
2018-07-01T18:16:51.251Z,20.65
2018-07-01T18:19:20.722Z,20.67
2018-07-01T18:22:09.757Z,20.64
2018-07-01T18:24:48.923Z,20.61
2018-07-01T18:26:49.923Z,20.54
2018-07-01T18:29:20.353Z,20.49
2018-07-01T18:31:50.347Z,20.51
2018-07-01T18:34:19.717Z,20.41
2018-07-01T18:36:49.187Z,20.40
2018-07-01T18:39:18.622Z,20.35
2018-07-01T18:41:47.947Z,20.29
2018-07-01T18:44:17.293Z,20.30
2018-07-01T18:46:46.840Z,20.25
2018-07-01T18:49:16.206Z,20.25
2018-07-01T18:51:45.622Z,20.19
2018-07-01T18:54:14.751Z,20.12
2018-07-01T18:56:44.124Z,20.07
2018-07-01T18:59:13.457Z,20.05
2018-07-01T19:01:42.886Z,20.03
2018-07-01T19:04:12.331Z,19.93
2018-07-01T19:06:43.208Z,19.95
2018-07-01T19:09:12.609Z,19.96
2018-07-01T19:11:42.016Z,19.88
2018-07-01T19:14:11.521Z,19.85
2018-07-01T19:16:41.245Z,19.85
2018-07-01T19:19:10.616Z,19.81
2018-07-01T19:21:39.990Z,19.76
2018-07-01T19:24:09.382Z,19.75
2018-07-01T19:26:38.858Z,19.68
2018-07-01T19:29:08.214Z,19.66
2018-07-01T19:31:38.122Z,19.64
2018-07-01T19:34:07.747Z,19.59
2018-07-01T19:36:37.294Z,19.54
2018-07-01T19:39:10.383Z,19.49
2018-07-01T19:41:39.892Z,19.46
2018-07-01T19:44:09.346Z,19.45
2018-07-01T19:46:38.764Z,19.42
2018-07-01T19:49:08.239Z,19.36
2018-07-01T19:51:37.668Z,19.26
2018-07-01T19:54:07.206Z,19.30
2018-07-01T19:56:36.890Z,19.16
2018-07-01T19:59:06.570Z,19.13
2018-07-01T20:01:36.410Z,19.00
2018-07-01T20:04:06.007Z,18.91
2018-07-01T20:06:35.790Z,18.86
2018-07-01T20:09:09.174Z,18.86
2018-07-01T20:11:38.693Z,18.86
2018-07-01T20:14:08.350Z,18.78
2018-07-01T20:16:37.737Z,18.67
2018-07-01T20:19:07.137Z,18.65
2018-07-01T20:21:36.868Z,18.58
2018-07-01T20:24:08.431Z,18.56
2018-07-01T20:26:37.895Z,18.59
2018-07-01T20:29:07.829Z,18.59
2018-07-01T20:31:38.669Z,18.54
2018-07-01T20:34:08.507Z,18.47
2018-07-01T20:36:39.351Z,18.48
2018-07-01T20:39:13.197Z,18.45
2018-07-01T20:41:43.342Z,18.37
2018-07-01T20:44:13.109Z,18.37
2018-07-01T20:46:42.987Z,18.36
2018-07-01T20:49:12.670Z,18.34
2018-07-01T20:51:42.876Z,18.28
2018-07-01T20:54:12.486Z,18.31
2018-07-01T20:56:41.975Z,18.26
2018-07-01T20:59:11.394Z,18.31
2018-07-01T21:01:40.731Z,18.31
2018-07-01T21:04:10.070Z,18.27
2018-07-01T21:06:39.426Z,18.27
2018-07-01T21:09:10.537Z,18.24
2018-07-01T21:11:39.964Z,18.33
2018-07-01T21:14:09.393Z,18.25
2018-07-01T21:16:39.388Z,18.18
2018-07-01T21:19:08.764Z,18.15
2018-07-01T21:21:38.136Z,18.11
2018-07-01T21:24:07.529Z,18.00
2018-07-01T21:26:36.946Z,17.97
2018-07-01T21:29:06.283Z,17.93
2018-07-01T21:31:35.655Z,18.01
2018-07-01T21:34:05.039Z,17.94
2018-07-01T21:36:34.405Z,17.90
2018-07-01T21:39:04.729Z,17.80
2018-07-01T21:41:34.145Z,17.73
2018-07-01T21:44:03.530Z,17.72
2018-07-01T21:46:32.970Z,17.65
2018-07-01T21:49:02.379Z,17.60
2018-07-01T21:51:31.773Z,17.55
2018-07-01T21:54:01.208Z,17.59
2018-07-01T21:56:30.575Z,17.51
2018-07-01T21:59:00.679Z,17.66
2018-07-01T22:01:30.058Z,17.59
2018-07-01T22:03:59.454Z,17.59
2018-07-01T22:06:34.092Z,17.56
2018-07-01T22:09:03.517Z,17.53
2018-07-01T22:11:51.438Z,17.52
2018-07-01T22:14:42.677Z,17.48
2018-07-01T22:17:12.757Z,17.47
2018-07-01T22:19:42.096Z,17.41
2018-07-01T22:22:11.486Z,17.36
2018-07-01T22:24:41.163Z,17.34
2018-07-01T22:27:10.586Z,17.32
2018-07-01T22:29:39.933Z,17.27
2018-07-01T22:32:09.506Z,17.26
2018-07-01T22:34:39.022Z,17.27
2018-07-01T22:37:08.401Z,17.30
2018-07-01T22:39:37.762Z,17.24
2018-07-01T22:42:07.347Z,17.14
2018-07-01T22:44:36.805Z,17.04
2018-07-01T22:47:06.277Z,16.95
2018-07-01T22:49:35.681Z,16.84
2018-07-01T22:52:05.081Z,16.86
2018-07-01T22:54:34.447Z,16.77
2018-07-01T22:57:03.817Z,16.80
2018-07-01T22:59:33.144Z,16.73
2018-07-01T23:03:14.953Z,16.63
2018-07-01T23:05:44.315Z,16.59
2018-07-01T23:08:13.664Z,16.62
2018-07-01T23:10:43.113Z,16.47
2018-07-01T23:13:12.477Z,16.39
2018-07-01T23:15:41.857Z,16.47
2018-07-01T23:18:11.203Z,16.33
2018-07-01T23:20:40.546Z,16.36
2018-07-01T23:23:09.901Z,16.46
2018-07-01T23:25:39.249Z,16.39
2018-07-01T23:28:08.580Z,16.30
2018-07-01T23:30:37.934Z,16.14
2018-07-01T23:33:07.281Z,16.15
2018-07-01T23:35:36.767Z,16.20
2018-07-01T23:38:06.248Z,16.15
2018-07-01T23:40:35.653Z,16.03
2018-07-01T23:43:05.006Z,15.99
2018-07-01T23:45:34.401Z,15.98
2018-07-01T23:48:03.739Z,15.98
2018-07-01T23:50:33.110Z,15.97
2018-07-01T23:53:02.569Z,15.91
2018-07-01T23:55:31.960Z,15.92
2018-07-01T23:58:01.330Z,15.87
